sensor_id;sensor_type;location;lat;lon;timestamp;P1;durP1;ratioP1;P2;durP2;ratioP2
14088;SDS011;7120;52.890;6.040;2024-03-06T00:01:57;33.67;;;25.77;;
14088;SDS011;7120;52.890;6.040;2024-03-06T00:04:23;36.83;;;26.37;;
14088;SDS011;7120;52.890;6.040;2024-03-06T00:06:48;31.10;;;24.80;;
14088;SDS011;7120;52.890;6.040;2024-03-06T00:09:16;29.50;;;24.33;;
14088;SDS011;7120;52.890;6.040;2024-03-06T00:11:43;34.13;;;24.73;;
14088;SDS011;7120;52.890;6.040;2024-03-06T00:14:09;32.63;;;24.80;;
14088;SDS011;7120;52.890;6.040;2024-03-06T00:16:34;31.97;;;25.30;;
14088;SDS011;7120;52.890;6.040;2024-03-06T00:18:59;32.80;;;25.40;;
14088;SDS011;7120;52.890;6.040;2024-03-06T00:21:25;31.67;;;24.07;;
14088;SDS011;7120;52.890;6.040;2024-03-06T00:23:50;29.00;;;23.17;;
14088;SDS011;7120;52.890;6.040;2024-03-06T00:26:15;27.87;;;23.00;;
14088;SDS011;7120;52.890;6.040;2024-03-06T00:28:41;25.57;;;21.90;;
14088;SDS011;7120;52.890;6.040;2024-03-06T00:31:06;28.50;;;22.27;;
14088;SDS011;7120;52.890;6.040;2024-03-06T00:33:34;26.50;;;20.63;;
14088;SDS011;7120;52.890;6.040;2024-03-06T00:35:59;25.30;;;20.67;;
14088;SDS011;7120;52.890;6.040;2024-03-06T00:38:25;21.37;;;19.13;;
14088;SDS011;7120;52.890;6.040;2024-03-06T00:40:50;26.33;;;19.00;;
14088;SDS011;7120;52.890;6.040;2024-03-06T00:43:15;23.17;;;19.07;;
14088;SDS011;7120;52.890;6.040;2024-03-06T00:45:41;19.70;;;17.27;;
14088;SDS011;7120;52.890;6.040;2024-03-06T00:48:06;24.00;;;17.50;;
14088;SDS011;7120;52.890;6.040;2024-03-06T00:50:32;22.23;;;18.07;;
14088;SDS011;7120;52.890;6.040;2024-03-06T00:52:57;20.87;;;17.03;;
14088;SDS011;7120;52.890;6.040;2024-03-06T00:55:23;25.23;;;18.33;;
14088;SDS011;7120;52.890;6.040;2024-03-06T00:57:48;20.17;;;16.80;;
14088;SDS011;7120;52.890;6.040;2024-03-06T01:00:13;20.30;;;17.00;;
14088;SDS011;7120;52.890;6.040;2024-03-06T01:02:41;19.90;;;16.83;;
14088;SDS011;7120;52.890;6.040;2024-03-06T01:05:06;24.00;;;17.43;;
14088;SDS011;7120;52.890;6.040;2024-03-06T01:07:34;25.17;;;18.20;;
14088;SDS011;7120;52.890;6.040;2024-03-06T01:10:02;23.57;;;17.70;;
14088;SDS011;7120;52.890;6.040;2024-03-06T01:12:28;21.00;;;17.17;;
14088;SDS011;7120;52.890;6.040;2024-03-06T01:14:53;20.03;;;16.57;;
14088;SDS011;7120;52.890;6.040;2024-03-06T01:17:19;20.80;;;16.63;;
14088;SDS011;7120;52.890;6.040;2024-03-06T01:19:44;21.13;;;16.83;;
14088;SDS011;7120;52.890;6.040;2024-03-06T01:22:10;22.90;;;17.23;;
14088;SDS011;7120;52.890;6.040;2024-03-06T01:24:35;22.73;;;16.87;;
14088;SDS011;7120;52.890;6.040;2024-03-06T01:27:00;20.93;;;15.80;;
14088;SDS011;7120;52.890;6.040;2024-03-06T01:29:27;21.60;;;16.70;;
14088;SDS011;7120;52.890;6.040;2024-03-06T01:31:53;23.57;;;18.13;;
14088;SDS011;7120;52.890;6.040;2024-03-06T01:34:19;18.57;;;16.57;;
14088;SDS011;7120;52.890;6.040;2024-03-06T01:36:44;21.20;;;16.23;;
14088;SDS011;7120;52.890;6.040;2024-03-06T01:39:09;19.10;;;16.30;;
14088;SDS011;7120;52.890;6.040;2024-03-06T01:41:35;22.53;;;16.87;;
14088;SDS011;7120;52.890;6.040;2024-03-06T01:44:01;20.53;;;15.60;;
14088;SDS011;7120;52.890;6.040;2024-03-06T01:46:26;19.77;;;15.63;;
14088;SDS011;7120;52.890;6.040;2024-03-06T01:48:52;20.53;;;16.03;;
14088;SDS011;7120;52.890;6.040;2024-03-06T01:51:18;16.33;;;14.63;;
14088;SDS011;7120;52.890;6.040;2024-03-06T01:53:44;17.40;;;14.87;;
14088;SDS011;7120;52.890;6.040;2024-03-06T01:56:09;19.80;;;14.83;;
14088;SDS011;7120;52.890;6.040;2024-03-06T01:58:37;17.87;;;14.87;;
14088;SDS011;7120;52.890;6.040;2024-03-06T02:01:04;17.27;;;15.30;;
14088;SDS011;7120;52.890;6.040;2024-03-06T02:03:31;18.00;;;14.40;;
14088;SDS011;7120;52.890;6.040;2024-03-06T02:05:58;22.10;;;14.53;;
14088;SDS011;7120;52.890;6.040;2024-03-06T02:08:27;16.90;;;13.87;;
14088;SDS011;7120;52.890;6.040;2024-03-06T02:10:52;17.47;;;13.47;;
14088;SDS011;7120;52.890;6.040;2024-03-06T02:13:18;17.20;;;12.93;;
14088;SDS011;7120;52.890;6.040;2024-03-06T02:15:44;15.97;;;13.10;;
14088;SDS011;7120;52.890;6.040;2024-03-06T02:18:10;17.17;;;13.87;;
14088;SDS011;7120;52.890;6.040;2024-03-06T02:20:37;16.87;;;14.60;;
14088;SDS011;7120;52.890;6.040;2024-03-06T02:23:05;20.23;;;14.50;;
14088;SDS011;7120;52.890;6.040;2024-03-06T02:25:30;20.60;;;13.77;;
14088;SDS011;7120;52.890;6.040;2024-03-06T02:27:55;15.63;;;13.93;;
14088;SDS011;7120;52.890;6.040;2024-03-06T02:30:21;18.20;;;13.80;;
14088;SDS011;7120;52.890;6.040;2024-03-06T02:32:46;18.67;;;14.13;;
14088;SDS011;7120;52.890;6.040;2024-03-06T02:35:11;17.13;;;14.20;;
14088;SDS011;7120;52.890;6.040;2024-03-06T02:37:37;16.90;;;14.50;;
14088;SDS011;7120;52.890;6.040;2024-03-06T02:40:03;17.73;;;14.17;;
14088;SDS011;7120;52.890;6.040;2024-03-06T02:42:32;18.03;;;14.27;;
14088;SDS011;7120;52.890;6.040;2024-03-06T02:44:57;18.97;;;14.37;;
14088;SDS011;7120;52.890;6.040;2024-03-06T02:47:23;16.30;;;12.80;;
14088;SDS011;7120;52.890;6.040;2024-03-06T02:49:48;17.30;;;14.07;;
14088;SDS011;7120;52.890;6.040;2024-03-06T02:52:13;19.87;;;14.53;;
14088;SDS011;7120;52.890;6.040;2024-03-06T02:54:40;16.00;;;14.07;;
14088;SDS011;7120;52.890;6.040;2024-03-06T02:57:06;18.63;;;13.63;;
14088;SDS011;7120;52.890;6.040;2024-03-06T02:59:32;20.07;;;13.60;;
14088;SDS011;7120;52.890;6.040;2024-03-06T03:01:57;16.57;;;14.17;;
14088;SDS011;7120;52.890;6.040;2024-03-06T03:04:22;15.63;;;13.30;;
14088;SDS011;7120;52.890;6.040;2024-03-06T03:06:48;16.53;;;12.87;;
14088;SDS011;7120;52.890;6.040;2024-03-06T03:09:13;16.53;;;13.30;;
14088;SDS011;7120;52.890;6.040;2024-03-06T03:11:39;24.17;;;13.07;;
14088;SDS011;7120;52.890;6.040;2024-03-06T03:14:04;19.80;;;13.53;;
14088;SDS011;7120;52.890;6.040;2024-03-06T03:16:29;16.10;;;13.60;;
14088;SDS011;7120;52.890;6.040;2024-03-06T03:18:55;17.43;;;13.63;;
14088;SDS011;7120;52.890;6.040;2024-03-06T03:21:20;14.50;;;13.00;;
14088;SDS011;7120;52.890;6.040;2024-03-06T03:23:47;20.40;;;14.20;;
14088;SDS011;7120;52.890;6.040;2024-03-06T03:26:13;16.10;;;14.40;;
14088;SDS011;7120;52.890;6.040;2024-03-06T03:28:39;16.77;;;13.40;;
14088;SDS011;7120;52.890;6.040;2024-03-06T03:31:05;16.73;;;13.60;;
14088;SDS011;7120;52.890;6.040;2024-03-06T03:33:34;19.53;;;13.70;;
14088;SDS011;7120;52.890;6.040;2024-03-06T03:36:03;16.73;;;13.80;;
14088;SDS011;7120;52.890;6.040;2024-03-06T03:38:29;18.03;;;13.80;;
14088;SDS011;7120;52.890;6.040;2024-03-06T03:40:55;15.70;;;12.90;;
14088;SDS011;7120;52.890;6.040;2024-03-06T03:43:20;16.73;;;12.40;;
14088;SDS011;7120;52.890;6.040;2024-03-06T03:45:46;14.20;;;12.77;;
14088;SDS011;7120;52.890;6.040;2024-03-06T03:48:11;15.17;;;13.00;;
14088;SDS011;7120;52.890;6.040;2024-03-06T03:50:37;19.03;;;13.70;;
14088;SDS011;7120;52.890;6.040;2024-03-06T03:53:02;16.57;;;12.60;;
14088;SDS011;7120;52.890;6.040;2024-03-06T03:55:29;18.73;;;13.03;;
14088;SDS011;7120;52.890;6.040;2024-03-06T03:57:54;20.63;;;13.57;;
14088;SDS011;7120;52.890;6.040;2024-03-06T04:00:22;15.73;;;14.13;;
14088;SDS011;7120;52.890;6.040;2024-03-06T04:02:48;16.53;;;13.00;;
14088;SDS011;7120;52.890;6.040;2024-03-06T04:05:13;17.97;;;12.47;;
14088;SDS011;7120;52.890;6.040;2024-03-06T04:07:39;16.87;;;12.70;;
14088;SDS011;7120;52.890;6.040;2024-03-06T04:10:05;18.90;;;13.00;;
14088;SDS011;7120;52.890;6.040;2024-03-06T04:12:31;17.83;;;12.93;;
14088;SDS011;7120;52.890;6.040;2024-03-06T04:14:56;14.60;;;12.63;;
14088;SDS011;7120;52.890;6.040;2024-03-06T04:17:22;18.37;;;13.03;;
14088;SDS011;7120;52.890;6.040;2024-03-06T04:19:47;19.30;;;12.80;;
14088;SDS011;7120;52.890;6.040;2024-03-06T04:22:13;17.43;;;12.33;;
14088;SDS011;7120;52.890;6.040;2024-03-06T04:24:42;19.20;;;12.80;;
14088;SDS011;7120;52.890;6.040;2024-03-06T04:27:07;16.33;;;12.40;;
14088;SDS011;7120;52.890;6.040;2024-03-06T04:29:33;22.00;;;13.90;;
14088;SDS011;7120;52.890;6.040;2024-03-06T04:32:01;20.20;;;13.90;;
14088;SDS011;7120;52.890;6.040;2024-03-06T04:34:26;19.53;;;14.07;;
14088;SDS011;7120;52.890;6.040;2024-03-06T04:36:52;16.70;;;13.40;;
14088;SDS011;7120;52.890;6.040;2024-03-06T04:39:17;18.03;;;13.97;;
14088;SDS011;7120;52.890;6.040;2024-03-06T04:41:42;19.37;;;12.93;;
14088;SDS011;7120;52.890;6.040;2024-03-06T04:44:08;18.37;;;13.37;;
14088;SDS011;7120;52.890;6.040;2024-03-06T04:46:33;19.43;;;13.93;;
14088;SDS011;7120;52.890;6.040;2024-03-06T04:48:58;16.73;;;13.57;;
14088;SDS011;7120;52.890;6.040;2024-03-06T04:51:24;16.53;;;13.63;;
14088;SDS011;7120;52.890;6.040;2024-03-06T04:53:49;15.77;;;13.27;;
14088;SDS011;7120;52.890;6.040;2024-03-06T04:56:14;17.07;;;13.60;;
14088;SDS011;7120;52.890;6.040;2024-03-06T04:58:41;17.30;;;14.17;;
14088;SDS011;7120;52.890;6.040;2024-03-06T05:01:06;18.40;;;13.30;;
14088;SDS011;7120;52.890;6.040;2024-03-06T05:03:31;17.70;;;13.40;;
14088;SDS011;7120;52.890;6.040;2024-03-06T05:05:57;17.93;;;13.73;;
14088;SDS011;7120;52.890;6.040;2024-03-06T05:08:22;19.07;;;12.53;;
14088;SDS011;7120;52.890;6.040;2024-03-06T05:10:47;16.23;;;13.70;;
14088;SDS011;7120;52.890;6.040;2024-03-06T05:13:13;17.87;;;13.57;;
14088;SDS011;7120;52.890;6.040;2024-03-06T05:15:38;16.27;;;13.73;;
14088;SDS011;7120;52.890;6.040;2024-03-06T05:18:04;14.83;;;12.83;;
14088;SDS011;7120;52.890;6.040;2024-03-06T05:20:30;17.00;;;13.10;;
14088;SDS011;7120;52.890;6.040;2024-03-06T05:22:58;17.63;;;12.83;;
14088;SDS011;7120;52.890;6.040;2024-03-06T05:25:23;17.90;;;12.50;;
14088;SDS011;7120;52.890;6.040;2024-03-06T05:27:49;16.80;;;13.23;;
14088;SDS011;7120;52.890;6.040;2024-03-06T05:30:15;18.60;;;13.10;;
14088;SDS011;7120;52.890;6.040;2024-03-06T05:32:40;14.67;;;12.90;;
14088;SDS011;7120;52.890;6.040;2024-03-06T05:35:06;15.63;;;13.20;;
14088;SDS011;7120;52.890;6.040;2024-03-06T05:37:35;16.27;;;12.90;;
14088;SDS011;7120;52.890;6.040;2024-03-06T05:40:00;21.23;;;13.83;;
14088;SDS011;7120;52.890;6.040;2024-03-06T05:42:26;18.00;;;12.30;;
14088;SDS011;7120;52.890;6.040;2024-03-06T05:44:51;16.03;;;13.10;;
14088;SDS011;7120;52.890;6.040;2024-03-06T05:47:19;14.77;;;12.73;;
14088;SDS011;7120;52.890;6.040;2024-03-06T05:49:45;20.63;;;14.20;;
14088;SDS011;7120;52.890;6.040;2024-03-06T05:52:10;20.03;;;13.40;;
14088;SDS011;7120;52.890;6.040;2024-03-06T05:54:36;15.13;;;13.50;;
14088;SDS011;7120;52.890;6.040;2024-03-06T05:57:02;15.43;;;12.83;;
14088;SDS011;7120;52.890;6.040;2024-03-06T05:59:28;15.13;;;12.87;;
14088;SDS011;7120;52.890;6.040;2024-03-06T06:01:53;19.23;;;13.57;;
14088;SDS011;7120;52.890;6.040;2024-03-06T06:04:19;19.50;;;14.13;;
14088;SDS011;7120;52.890;6.040;2024-03-06T06:06:45;16.10;;;12.87;;
14088;SDS011;7120;52.890;6.040;2024-03-06T06:09:10;17.63;;;12.77;;
14088;SDS011;7120;52.890;6.040;2024-03-06T06:11:41;15.80;;;12.40;;
14088;SDS011;7120;52.890;6.040;2024-03-06T06:14:07;17.97;;;13.17;;
14088;SDS011;7120;52.890;6.040;2024-03-06T06:16:38;16.23;;;11.77;;
14088;SDS011;7120;52.890;6.040;2024-03-06T06:19:05;17.90;;;13.50;;
14088;SDS011;7120;52.890;6.040;2024-03-06T06:21:31;16.97;;;14.30;;
14088;SDS011;7120;52.890;6.040;2024-03-06T06:23:57;20.47;;;13.00;;
14088;SDS011;7120;52.890;6.040;2024-03-06T06:26:22;19.47;;;13.63;;
14088;SDS011;7120;52.890;6.040;2024-03-06T06:28:47;18.03;;;13.23;;
14088;SDS011;7120;52.890;6.040;2024-03-06T06:31:13;18.90;;;13.87;;
14088;SDS011;7120;52.890;6.040;2024-03-06T06:33:38;22.53;;;14.03;;
14088;SDS011;7120;52.890;6.040;2024-03-06T06:36:03;18.40;;;13.13;;
14088;SDS011;7120;52.890;6.040;2024-03-06T06:38:30;20.03;;;13.93;;
14088;SDS011;7120;52.890;6.040;2024-03-06T06:40:55;18.07;;;13.57;;
14088;SDS011;7120;52.890;6.040;2024-03-06T06:43:21;21.50;;;13.83;;
14088;SDS011;7120;52.890;6.040;2024-03-06T06:45:46;22.43;;;14.20;;
14088;SDS011;7120;52.890;6.040;2024-03-06T06:48:12;17.10;;;13.03;;
14088;SDS011;7120;52.890;6.040;2024-03-06T06:50:37;16.10;;;13.70;;
14088;SDS011;7120;52.890;6.040;2024-03-06T06:53:03;18.50;;;13.60;;
14088;SDS011;7120;52.890;6.040;2024-03-06T06:55:28;22.30;;;14.37;;
14088;SDS011;7120;52.890;6.040;2024-03-06T06:57:54;18.00;;;13.00;;
14088;SDS011;7120;52.890;6.040;2024-03-06T07:00:20;16.60;;;13.90;;
14088;SDS011;7120;52.890;6.040;2024-03-06T07:02:47;18.07;;;13.90;;
14088;SDS011;7120;52.890;6.040;2024-03-06T07:05:13;16.80;;;13.80;;
14088;SDS011;7120;52.890;6.040;2024-03-06T07:07:39;17.80;;;13.93;;
14088;SDS011;7120;52.890;6.040;2024-03-06T07:10:04;18.10;;;14.97;;
14088;SDS011;7120;52.890;6.040;2024-03-06T07:12:31;19.73;;;14.70;;
14088;SDS011;7120;52.890;6.040;2024-03-06T07:14:56;17.90;;;14.40;;
14088;SDS011;7120;52.890;6.040;2024-03-06T07:17:23;15.50;;;13.67;;
14088;SDS011;7120;52.890;6.040;2024-03-06T07:19:48;16.03;;;14.33;;
14088;SDS011;7120;52.890;6.040;2024-03-06T07:22:14;22.77;;;14.67;;
14088;SDS011;7120;52.890;6.040;2024-03-06T07:24:39;16.37;;;13.97;;
14088;SDS011;7120;52.890;6.040;2024-03-06T07:27:06;18.60;;;13.00;;
14088;SDS011;7120;52.890;6.040;2024-03-06T07:29:33;16.47;;;12.83;;
14088;SDS011;7120;52.890;6.040;2024-03-06T07:31:59;17.00;;;13.10;;
14088;SDS011;7120;52.890;6.040;2024-03-06T07:34:25;17.63;;;13.77;;
14088;SDS011;7120;52.890;6.040;2024-03-06T07:36:50;16.43;;;14.03;;
14088;SDS011;7120;52.890;6.040;2024-03-06T07:39:16;16.77;;;14.27;;
14088;SDS011;7120;52.890;6.040;2024-03-06T07:41:41;18.77;;;15.17;;
14088;SDS011;7120;52.890;6.040;2024-03-06T07:44:07;20.30;;;13.90;;
14088;SDS011;7120;52.890;6.040;2024-03-06T07:46:34;21.90;;;13.97;;
14088;SDS011;7120;52.890;6.040;2024-03-06T07:48:59;20.47;;;14.20;;
14088;SDS011;7120;52.890;6.040;2024-03-06T07:51:25;16.40;;;14.63;;
14088;SDS011;7120;52.890;6.040;2024-03-06T07:53:50;18.83;;;14.50;;
14088;SDS011;7120;52.890;6.040;2024-03-06T07:56:16;16.63;;;14.83;;
14088;SDS011;7120;52.890;6.040;2024-03-06T07:58:42;18.07;;;14.17;;
14088;SDS011;7120;52.890;6.040;2024-03-06T08:01:07;19.40;;;13.83;;
14088;SDS011;7120;52.890;6.040;2024-03-06T08:03:33;16.87;;;13.80;;
14088;SDS011;7120;52.890;6.040;2024-03-06T08:05:59;19.07;;;14.30;;
14088;SDS011;7120;52.890;6.040;2024-03-06T08:08:25;20.90;;;13.77;;
14088;SDS011;7120;52.890;6.040;2024-03-06T08:10:50;17.07;;;13.97;;
14088;SDS011;7120;52.890;6.040;2024-03-06T08:13:16;16.70;;;13.60;;
14088;SDS011;7120;52.890;6.040;2024-03-06T08:15:42;18.70;;;14.43;;
14088;SDS011;7120;52.890;6.040;2024-03-06T08:18:09;16.93;;;13.10;;
14088;SDS011;7120;52.890;6.040;2024-03-06T08:20:34;16.30;;;14.10;;
14088;SDS011;7120;52.890;6.040;2024-03-06T08:23:00;15.30;;;13.47;;
14088;SDS011;7120;52.890;6.040;2024-03-06T08:25:25;19.53;;;12.87;;
14088;SDS011;7120;52.890;6.040;2024-03-06T08:27:51;20.37;;;14.47;;
14088;SDS011;7120;52.890;6.040;2024-03-06T08:30:16;18.87;;;13.80;;
14088;SDS011;7120;52.890;6.040;2024-03-06T08:32:41;17.30;;;13.60;;
14088;SDS011;7120;52.890;6.040;2024-03-06T08:35:09;18.33;;;14.03;;
14088;SDS011;7120;52.890;6.040;2024-03-06T08:37:41;16.53;;;13.40;;
14088;SDS011;7120;52.890;6.040;2024-03-06T08:40:07;17.53;;;12.97;;
14088;SDS011;7120;52.890;6.040;2024-03-06T08:42:35;15.87;;;13.30;;
14088;SDS011;7120;52.890;6.040;2024-03-06T08:45:01;17.67;;;13.33;;
14088;SDS011;7120;52.890;6.040;2024-03-06T08:47:26;17.37;;;13.87;;
14088;SDS011;7120;52.890;6.040;2024-03-06T08:49:52;19.70;;;14.40;;
14088;SDS011;7120;52.890;6.040;2024-03-06T08:52:17;17.63;;;15.53;;
14088;SDS011;7120;52.890;6.040;2024-03-06T08:54:42;16.30;;;14.57;;
14088;SDS011;7120;52.890;6.040;2024-03-06T08:57:08;17.80;;;13.77;;
14088;SDS011;7120;52.890;6.040;2024-03-06T08:59:34;16.63;;;13.97;;
14088;SDS011;7120;52.890;6.040;2024-03-06T09:02:12;20.40;;;13.83;;
14088;SDS011;7120;52.890;6.040;2024-03-06T09:04:39;17.97;;;13.40;;
14088;SDS011;7120;52.890;6.040;2024-03-06T09:07:06;18.97;;;14.03;;
14088;SDS011;7120;52.890;6.040;2024-03-06T09:09:34;20.27;;;15.03;;
14088;SDS011;7120;52.890;6.040;2024-03-06T09:12:01;17.37;;;14.30;;
14088;SDS011;7120;52.890;6.040;2024-03-06T09:14:29;20.27;;;14.43;;
14088;SDS011;7120;52.890;6.040;2024-03-06T09:16:55;16.67;;;13.97;;
14088;SDS011;7120;52.890;6.040;2024-03-06T09:19:20;15.93;;;13.63;;
14088;SDS011;7120;52.890;6.040;2024-03-06T09:21:45;16.50;;;14.17;;
14088;SDS011;7120;52.890;6.040;2024-03-06T09:24:11;16.30;;;14.60;;
14088;SDS011;7120;52.890;6.040;2024-03-06T09:26:36;16.20;;;14.37;;
14088;SDS011;7120;52.890;6.040;2024-03-06T09:29:02;15.80;;;14.10;;
14088;SDS011;7120;52.890;6.040;2024-03-06T09:31:27;16.87;;;14.33;;
14088;SDS011;7120;52.890;6.040;2024-03-06T09:33:53;18.17;;;15.33;;
14088;SDS011;7120;52.890;6.040;2024-03-06T09:36:18;18.57;;;15.40;;
14088;SDS011;7120;52.890;6.040;2024-03-06T09:38:43;17.40;;;14.60;;
14088;SDS011;7120;52.890;6.040;2024-03-06T09:41:09;15.67;;;13.80;;
14088;SDS011;7120;52.890;6.040;2024-03-06T09:43:34;19.33;;;14.20;;
14088;SDS011;7120;52.890;6.040;2024-03-06T09:46:00;19.50;;;14.67;;
14088;SDS011;7120;52.890;6.040;2024-03-06T09:48:29;18.00;;;14.87;;
14088;SDS011;7120;52.890;6.040;2024-03-06T09:50:54;21.60;;;14.60;;
14088;SDS011;7120;52.890;6.040;2024-03-06T09:53:25;15.90;;;13.47;;
14088;SDS011;7120;52.890;6.040;2024-03-06T09:55:51;18.07;;;15.27;;
14088;SDS011;7120;52.890;6.040;2024-03-06T09:58:17;19.77;;;15.20;;
14088;SDS011;7120;52.890;6.040;2024-03-06T10:00:42;18.53;;;14.57;;
14088;SDS011;7120;52.890;6.040;2024-03-06T10:03:09;17.17;;;14.20;;
14088;SDS011;7120;52.890;6.040;2024-03-06T10:05:35;17.33;;;13.83;;
14088;SDS011;7120;52.890;6.040;2024-03-06T10:08:00;17.87;;;14.83;;
14088;SDS011;7120;52.890;6.040;2024-03-06T10:10:26;17.73;;;14.87;;
14088;SDS011;7120;52.890;6.040;2024-03-06T10:12:52;17.50;;;14.63;;
14088;SDS011;7120;52.890;6.040;2024-03-06T10:15:18;20.13;;;14.67;;
14088;SDS011;7120;52.890;6.040;2024-03-06T10:17:44;19.83;;;15.20;;
14088;SDS011;7120;52.890;6.040;2024-03-06T10:20:19;19.47;;;15.30;;
14088;SDS011;7120;52.890;6.040;2024-03-06T10:22:49;18.60;;;16.07;;
14088;SDS011;7120;52.890;6.040;2024-03-06T10:25:18;18.07;;;15.43;;
14088;SDS011;7120;52.890;6.040;2024-03-06T10:28:05;18.20;;;15.57;;
14088;SDS011;7120;52.890;6.040;2024-03-06T10:30:35;19.83;;;15.63;;
14088;SDS011;7120;52.890;6.040;2024-03-06T10:33:03;18.60;;;15.23;;
14088;SDS011;7120;52.890;6.040;2024-03-06T10:35:31;18.27;;;15.30;;
14088;SDS011;7120;52.890;6.040;2024-03-06T10:37:56;19.50;;;15.63;;
14088;SDS011;7120;52.890;6.040;2024-03-06T10:40:26;21.83;;;16.27;;
14088;SDS011;7120;52.890;6.040;2024-03-06T10:42:56;22.70;;;15.97;;
14088;SDS011;7120;52.890;6.040;2024-03-06T10:45:23;22.63;;;16.90;;
14088;SDS011;7120;52.890;6.040;2024-03-06T10:47:59;20.83;;;16.13;;
14088;SDS011;7120;52.890;6.040;2024-03-06T10:50:25;20.43;;;16.77;;
14088;SDS011;7120;52.890;6.040;2024-03-06T10:52:53;19.87;;;16.37;;
14088;SDS011;7120;52.890;6.040;2024-03-06T10:55:21;22.40;;;17.93;;
14088;SDS011;7120;52.890;6.040;2024-03-06T10:57:48;21.30;;;17.60;;
14088;SDS011;7120;52.890;6.040;2024-03-06T11:00:17;19.70;;;16.80;;
14088;SDS011;7120;52.890;6.040;2024-03-06T11:02:47;21.13;;;17.10;;
14088;SDS011;7120;52.890;6.040;2024-03-06T11:05:14;24.00;;;17.33;;
14088;SDS011;7120;52.890;6.040;2024-03-06T11:07:40;20.57;;;16.77;;
14088;SDS011;7120;52.890;6.040;2024-03-06T11:10:06;21.80;;;16.90;;
14088;SDS011;7120;52.890;6.040;2024-03-06T11:12:33;20.83;;;16.77;;
14088;SDS011;7120;52.890;6.040;2024-03-06T11:15:13;20.93;;;16.27;;
14088;SDS011;7120;52.890;6.040;2024-03-06T11:17:41;20.80;;;16.53;;
14088;SDS011;7120;52.890;6.040;2024-03-06T11:20:13;21.33;;;18.17;;
14088;SDS011;7120;52.890;6.040;2024-03-06T11:28:10;18.43;;;16.37;;
14088;SDS011;7120;52.890;6.040;2024-03-06T11:33:40;21.40;;;18.00;;
14088;SDS011;7120;52.890;6.040;2024-03-06T11:38:58;18.90;;;16.90;;
14088;SDS011;7120;52.890;6.040;2024-03-06T11:41:26;19.57;;;17.33;;
14088;SDS011;7120;52.890;6.040;2024-03-06T11:43:53;20.77;;;18.00;;
14088;SDS011;7120;52.890;6.040;2024-03-06T11:46:20;20.63;;;16.97;;
14088;SDS011;7120;52.890;6.040;2024-03-06T11:48:53;20.53;;;17.73;;
14088;SDS011;7120;52.890;6.040;2024-03-06T11:51:19;19.87;;;17.07;;
14088;SDS011;7120;52.890;6.040;2024-03-06T11:53:45;18.97;;;16.97;;
14088;SDS011;7120;52.890;6.040;2024-03-06T11:56:10;25.97;;;19.70;;
14088;SDS011;7120;52.890;6.040;2024-03-06T11:58:36;19.97;;;17.83;;
14088;SDS011;7120;52.890;6.040;2024-03-06T12:01:01;21.47;;;18.27;;
14088;SDS011;7120;52.890;6.040;2024-03-06T12:03:27;22.70;;;18.87;;
14088;SDS011;7120;52.890;6.040;2024-03-06T12:05:53;24.10;;;19.37;;
14088;SDS011;7120;52.890;6.040;2024-03-06T12:08:18;21.10;;;18.90;;
14088;SDS011;7120;52.890;6.040;2024-03-06T12:10:46;22.93;;;18.30;;
14088;SDS011;7120;52.890;6.040;2024-03-06T12:13:12;24.37;;;18.53;;
14088;SDS011;7120;52.890;6.040;2024-03-06T12:15:38;21.07;;;18.50;;
14088;SDS011;7120;52.890;6.040;2024-03-06T12:18:04;23.30;;;19.07;;
14088;SDS011;7120;52.890;6.040;2024-03-06T12:20:30;24.10;;;19.67;;
14088;SDS011;7120;52.890;6.040;2024-03-06T12:22:56;24.23;;;19.03;;
14088;SDS011;7120;52.890;6.040;2024-03-06T12:25:22;21.47;;;19.17;;
14088;SDS011;7120;52.890;6.040;2024-03-06T12:27:50;24.20;;;19.37;;
14088;SDS011;7120;52.890;6.040;2024-03-06T12:30:22;26.10;;;19.17;;
14088;SDS011;7120;52.890;6.040;2024-03-06T12:32:57;21.43;;;18.97;;
14088;SDS011;7120;52.890;6.040;2024-03-06T12:35:26;22.87;;;19.63;;
14088;SDS011;7120;52.890;6.040;2024-03-06T12:37:52;23.20;;;20.70;;
14088;SDS011;7120;52.890;6.040;2024-03-06T12:40:18;22.13;;;19.17;;
14088;SDS011;7120;52.890;6.040;2024-03-06T12:42:44;24.17;;;19.57;;
14088;SDS011;7120;52.890;6.040;2024-03-06T12:45:11;23.57;;;19.70;;
14088;SDS011;7120;52.890;6.040;2024-03-06T12:47:40;21.13;;;18.23;;
14088;SDS011;7120;52.890;6.040;2024-03-06T12:50:06;21.80;;;17.70;;
14088;SDS011;7120;52.890;6.040;2024-03-06T12:52:33;21.80;;;17.27;;
14088;SDS011;7120;52.890;6.040;2024-03-06T12:54:59;19.07;;;16.40;;
14088;SDS011;7120;52.890;6.040;2024-03-06T12:57:24;18.70;;;16.20;;
14088;SDS011;7120;52.890;6.040;2024-03-06T12:59:50;19.47;;;17.37;;
14088;SDS011;7120;52.890;6.040;2024-03-06T13:02:15;18.50;;;16.50;;
14088;SDS011;7120;52.890;6.040;2024-03-06T13:04:43;19.03;;;15.90;;
14088;SDS011;7120;52.890;6.040;2024-03-06T13:07:08;17.30;;;15.50;;
14088;SDS011;7120;52.890;6.040;2024-03-06T13:09:34;18.93;;;16.87;;
14088;SDS011;7120;52.890;6.040;2024-03-06T13:11:59;18.83;;;16.83;;
14088;SDS011;7120;52.890;6.040;2024-03-06T13:14:24;17.90;;;16.00;;
14088;SDS011;7120;52.890;6.040;2024-03-06T13:16:50;21.90;;;16.23;;
14088;SDS011;7120;52.890;6.040;2024-03-06T13:19:15;18.53;;;16.50;;
14088;SDS011;7120;52.890;6.040;2024-03-06T13:21:40;17.97;;;15.97;;
14088;SDS011;7120;52.890;6.040;2024-03-06T13:24:06;18.87;;;16.87;;
14088;SDS011;7120;52.890;6.040;2024-03-06T13:26:31;19.93;;;17.10;;
14088;SDS011;7120;52.890;6.040;2024-03-06T13:28:57;23.43;;;18.40;;
14088;SDS011;7120;52.890;6.040;2024-03-06T13:31:22;20.40;;;18.33;;
14088;SDS011;7120;52.890;6.040;2024-03-06T13:33:48;23.43;;;17.67;;
14088;SDS011;7120;52.890;6.040;2024-03-06T13:36:14;20.23;;;18.10;;
14088;SDS011;7120;52.890;6.040;2024-03-06T13:38:40;20.90;;;18.03;;
14088;SDS011;7120;52.890;6.040;2024-03-06T13:41:05;22.57;;;19.03;;
14088;SDS011;7120;52.890;6.040;2024-03-06T13:43:30;22.73;;;19.20;;
14088;SDS011;7120;52.890;6.040;2024-03-06T13:45:56;22.37;;;19.50;;
14088;SDS011;7120;52.890;6.040;2024-03-06T13:48:22;24.70;;;19.80;;
14088;SDS011;7120;52.890;6.040;2024-03-06T13:50:47;22.30;;;18.63;;
14088;SDS011;7120;52.890;6.040;2024-03-06T13:53:13;23.63;;;20.73;;
14088;SDS011;7120;52.890;6.040;2024-03-06T13:55:38;24.50;;;20.70;;
14088;SDS011;7120;52.890;6.040;2024-03-06T13:58:05;23.93;;;21.40;;
14088;SDS011;7120;52.890;6.040;2024-03-06T14:00:30;23.53;;;20.23;;
14088;SDS011;7120;52.890;6.040;2024-03-06T14:02:56;22.17;;;19.97;;
14088;SDS011;7120;52.890;6.040;2024-03-06T14:05:21;29.17;;;21.83;;
14088;SDS011;7120;52.890;6.040;2024-03-06T14:07:59;25.83;;;21.83;;
14088;SDS011;7120;52.890;6.040;2024-03-06T14:10:26;27.83;;;22.73;;
14088;SDS011;7120;52.890;6.040;2024-03-06T14:12:52;24.90;;;21.70;;
14088;SDS011;7120;52.890;6.040;2024-03-06T14:15:19;25.27;;;21.27;;
14088;SDS011;7120;52.890;6.040;2024-03-06T14:17:44;23.87;;;21.27;;
14088;SDS011;7120;52.890;6.040;2024-03-06T14:20:10;24.77;;;22.07;;
14088;SDS011;7120;52.890;6.040;2024-03-06T14:22:43;25.97;;;21.37;;
14088;SDS011;7120;52.890;6.040;2024-03-06T14:25:09;25.50;;;22.60;;
14088;SDS011;7120;52.890;6.040;2024-03-06T14:27:35;25.47;;;22.03;;
14088;SDS011;7120;52.890;6.040;2024-03-06T14:30:01;25.70;;;22.73;;
14088;SDS011;7120;52.890;6.040;2024-03-06T14:32:27;26.17;;;22.17;;
14088;SDS011;7120;52.890;6.040;2024-03-06T14:34:52;27.40;;;22.73;;
14088;SDS011;7120;52.890;6.040;2024-03-06T14:37:18;26.87;;;23.67;;
14088;SDS011;7120;52.890;6.040;2024-03-06T14:39:43;30.37;;;23.93;;